createdAt,value
2018-04-16T19:53:53.466Z,15.73
2018-04-16T19:56:27.280Z,16.77
2018-04-16T19:58:56.383Z,15.50
2018-04-16T20:01:24.774Z,15.93
2018-04-16T20:03:58.438Z,16.23
2018-04-16T20:06:26.791Z,15.50
2018-04-16T20:08:55.182Z,14.73
2018-04-16T20:11:33.567Z,14.60
2018-04-16T20:14:01.741Z,14.27
2018-04-16T20:16:30.107Z,13.57
2018-04-16T20:18:59.237Z,12.97
2018-04-16T20:21:32.200Z,13.50
2018-04-16T20:24:01.516Z,14.07
2018-04-16T20:26:29.942Z,14.93
2018-04-16T20:28:58.299Z,14.93
2018-04-16T20:31:26.697Z,15.83
2018-04-16T20:33:55.064Z,14.33
2018-04-16T20:36:23.515Z,14.50
2018-04-16T20:38:51.875Z,15.13
2018-04-16T20:41:21.191Z,14.37
2018-04-16T20:43:49.580Z,15.90
2018-04-16T20:46:17.942Z,14.93
2018-04-16T20:48:46.315Z,14.23
2018-04-16T20:51:14.663Z,14.60
2018-04-16T20:53:43.042Z,15.33
2018-04-16T20:56:11.400Z,15.00
2018-04-16T20:58:39.772Z,15.73
2018-04-16T21:01:08.129Z,15.47
2018-04-16T21:03:36.490Z,14.63
2018-04-16T21:06:04.845Z,16.03
2018-04-16T21:08:33.208Z,16.07
2018-04-16T21:11:01.576Z,16.63
2018-04-16T21:13:29.931Z,17.50
2018-04-16T21:15:58.276Z,19.30
2018-04-16T21:18:26.629Z,18.10
2018-04-16T21:20:55.077Z,19.17
2018-04-16T21:23:23.492Z,18.97
2018-04-16T21:25:51.853Z,19.73
2018-04-16T21:28:20.211Z,19.23
2018-04-16T21:30:48.572Z,19.70
2018-04-16T21:33:16.927Z,21.07
2018-04-16T21:35:45.283Z,18.57
2018-04-16T21:38:13.688Z,17.30
2018-04-16T21:40:42.060Z,13.70
2018-04-16T21:43:10.210Z,13.13
2018-04-16T21:45:38.567Z,14.67
2018-04-16T21:48:06.916Z,14.43
2018-04-16T21:50:35.279Z,14.60
2018-04-16T21:53:03.395Z,13.97
2018-04-16T21:55:31.970Z,12.23
2018-04-16T21:58:00.371Z,12.37
2018-04-16T22:00:28.734Z,11.80
2018-04-16T22:02:57.140Z,18.30
2018-04-16T22:05:25.486Z,20.47
2018-04-16T22:07:53.836Z,20.93
2018-04-16T22:10:22.211Z,22.40
2018-04-16T22:12:50.746Z,23.07
2018-04-16T22:15:19.095Z,21.93
2018-04-16T22:17:48.236Z,21.03
2018-04-16T22:20:16.598Z,19.43
2018-04-16T22:22:44.963Z,20.80
2018-04-16T22:25:13.104Z,19.33
2018-04-16T22:27:41.467Z,19.57
2018-04-16T22:30:09.623Z,18.23
2018-04-16T22:32:37.971Z,18.40
2018-04-16T22:35:06.348Z,17.90
2018-04-16T22:37:34.718Z,17.60
2018-04-16T22:40:03.186Z,18.27
2018-04-16T22:42:31.530Z,16.97
2018-04-16T22:44:59.897Z,17.20
2018-04-16T22:47:28.250Z,16.97
2018-04-16T22:49:56.621Z,17.73
2018-04-16T22:52:24.963Z,17.07
2018-04-16T22:54:53.094Z,16.60
2018-04-16T22:57:21.492Z,17.50
2018-04-16T22:59:49.916Z,16.23
2018-04-16T23:02:18.272Z,16.20
2018-04-16T23:04:46.623Z,17.03
2018-04-16T23:07:14.989Z,16.63
2018-04-16T23:09:43.365Z,16.83
2018-04-16T23:12:11.768Z,17.73
2018-04-16T23:14:40.120Z,17.17
2018-04-16T23:17:08.540Z,17.33
2018-04-16T23:19:36.894Z,16.93
2018-04-16T23:22:05.257Z,17.57
2018-04-16T23:24:33.628Z,17.77
2018-04-16T23:27:01.996Z,17.43
2018-04-16T23:29:30.360Z,18.37
2018-04-16T23:31:58.714Z,17.00
2018-04-16T23:34:27.113Z,17.33
2018-04-16T23:36:55.478Z,15.63
2018-04-16T23:39:23.837Z,16.53
2018-04-16T23:41:52.238Z,16.20
2018-04-16T23:44:20.596Z,16.10
2018-04-16T23:46:49.000Z,16.50
2018-04-16T23:49:17.374Z,15.13
2018-04-16T23:51:45.812Z,15.43
2018-04-16T23:54:14.189Z,15.27
2018-04-16T23:56:42.591Z,16.53
2018-04-16T23:59:10.945Z,14.57
